sensor_id;sensor_type;location;lat;lon;timestamp;P1;durP1;ratioP1;P2;durP2;ratioP2
15356;SDS011;7778;48.792;9.260;2024-03-22T00:00:29;14.38;;;8.32;;
15356;SDS011;7778;48.792;9.260;2024-03-22T00:03:14;17.52;;;8.98;;
15356;SDS011;7778;48.792;9.260;2024-03-22T00:06:00;14.63;;;8.38;;
15356;SDS011;7778;48.792;9.260;2024-03-22T00:08:44;15.88;;;7.53;;
15356;SDS011;7778;48.792;9.260;2024-03-22T00:11:30;14.93;;;7.88;;
15356;SDS011;7778;48.792;9.260;2024-03-22T00:14:17;16.02;;;8.13;;
15356;SDS011;7778;48.792;9.260;2024-03-22T00:17:02;14.82;;;8.13;;
15356;SDS011;7778;48.792;9.260;2024-03-22T00:19:47;14.23;;;7.22;;
15356;SDS011;7778;48.792;9.260;2024-03-22T00:22:33;15.00;;;7.75;;
15356;SDS011;7778;48.792;9.260;2024-03-22T00:25:17;16.63;;;7.88;;
15356;SDS011;7778;48.792;9.260;2024-03-22T00:28:03;11.50;;;7.80;;
15356;SDS011;7778;48.792;9.260;2024-03-22T00:30:49;18.20;;;8.38;;
15356;SDS011;7778;48.792;9.260;2024-03-22T00:33:35;14.68;;;7.65;;
15356;SDS011;7778;48.792;9.260;2024-03-22T00:36:19;12.73;;;7.28;;
15356;SDS011;7778;48.792;9.260;2024-03-22T00:39:05;13.68;;;7.63;;
15356;SDS011;7778;48.792;9.260;2024-03-22T00:41:49;14.82;;;7.55;;
15356;SDS011;7778;48.792;9.260;2024-03-22T00:44:35;16.05;;;7.70;;
15356;SDS011;7778;48.792;9.260;2024-03-22T00:47:21;13.35;;;7.50;;
15356;SDS011;7778;48.792;9.260;2024-03-22T00:50:07;13.60;;;8.40;;
15356;SDS011;7778;48.792;9.260;2024-03-22T00:52:52;15.93;;;7.90;;
15356;SDS011;7778;48.792;9.260;2024-03-22T00:55:39;15.88;;;8.52;;
15356;SDS011;7778;48.792;9.260;2024-03-22T00:58:25;14.60;;;8.35;;
15356;SDS011;7778;48.792;9.260;2024-03-22T01:01:12;12.98;;;8.00;;
15356;SDS011;7778;48.792;9.260;2024-03-22T01:03:58;16.48;;;7.88;;
15356;SDS011;7778;48.792;9.260;2024-03-22T01:06:44;16.45;;;8.85;;
15356;SDS011;7778;48.792;9.260;2024-03-22T01:09:28;16.38;;;8.90;;
15356;SDS011;7778;48.792;9.260;2024-03-22T01:12:14;18.17;;;8.50;;
15356;SDS011;7778;48.792;9.260;2024-03-22T01:14:58;20.35;;;9.40;;
15356;SDS011;7778;48.792;9.260;2024-03-22T01:17:44;17.75;;;9.65;;
15356;SDS011;7778;48.792;9.260;2024-03-22T01:20:31;20.48;;;11.45;;
15356;SDS011;7778;48.792;9.260;2024-03-22T01:23:16;26.20;;;11.27;;
15356;SDS011;7778;48.792;9.260;2024-03-22T01:26:02;22.60;;;10.63;;
15356;SDS011;7778;48.792;9.260;2024-03-22T01:28:48;17.70;;;10.32;;
15356;SDS011;7778;48.792;9.260;2024-03-22T01:31:33;23.15;;;10.85;;
15356;SDS011;7778;48.792;9.260;2024-03-22T01:34:18;23.15;;;11.95;;
15356;SDS011;7778;48.792;9.260;2024-03-22T01:37:05;20.58;;;10.95;;
15356;SDS011;7778;48.792;9.260;2024-03-22T01:39:50;22.40;;;12.07;;
15356;SDS011;7778;48.792;9.260;2024-03-22T01:42:35;28.30;;;12.40;;
15356;SDS011;7778;48.792;9.260;2024-03-22T01:45:20;19.23;;;11.02;;
15356;SDS011;7778;48.792;9.260;2024-03-22T01:48:08;20.25;;;10.85;;
15356;SDS011;7778;48.792;9.260;2024-03-22T01:50:53;18.08;;;10.30;;
15356;SDS011;7778;48.792;9.260;2024-03-22T01:53:40;16.20;;;8.70;;
15356;SDS011;7778;48.792;9.260;2024-03-22T01:56:25;13.55;;;8.63;;
15356;SDS011;7778;48.792;9.260;2024-03-22T01:59:11;16.63;;;8.80;;
15356;SDS011;7778;48.792;9.260;2024-03-22T02:01:56;13.27;;;8.73;;
15356;SDS011;7778;48.792;9.260;2024-03-22T02:04:42;21.40;;;10.70;;
15356;SDS011;7778;48.792;9.260;2024-03-22T02:07:27;19.13;;;10.52;;
15356;SDS011;7778;48.792;9.260;2024-03-22T02:10:16;21.52;;;11.82;;
15356;SDS011;7778;48.792;9.260;2024-03-22T02:13:01;20.30;;;11.35;;
15356;SDS011;7778;48.792;9.260;2024-03-22T02:15:47;19.35;;;10.68;;
15356;SDS011;7778;48.792;9.260;2024-03-22T02:18:32;17.63;;;10.25;;
15356;SDS011;7778;48.792;9.260;2024-03-22T02:21:17;19.35;;;11.02;;
15356;SDS011;7778;48.792;9.260;2024-03-22T02:24:03;21.98;;;9.95;;
15356;SDS011;7778;48.792;9.260;2024-03-22T02:26:50;16.95;;;10.25;;
15356;SDS011;7778;48.792;9.260;2024-03-22T02:29:34;19.27;;;10.48;;
15356;SDS011;7778;48.792;9.260;2024-03-22T02:32:20;18.77;;;11.27;;
15356;SDS011;7778;48.792;9.260;2024-03-22T02:35:04;18.77;;;9.45;;
15356;SDS011;7778;48.792;9.260;2024-03-22T02:37:51;14.63;;;9.57;;
15356;SDS011;7778;48.792;9.260;2024-03-22T02:40:37;15.45;;;8.77;;
15356;SDS011;7778;48.792;9.260;2024-03-22T02:43:22;16.97;;;9.47;;
15356;SDS011;7778;48.792;9.260;2024-03-22T02:46:07;18.15;;;9.40;;
15356;SDS011;7778;48.792;9.260;2024-03-22T02:48:53;16.13;;;8.73;;
15356;SDS011;7778;48.792;9.260;2024-03-22T02:51:37;12.98;;;8.13;;
15356;SDS011;7778;48.792;9.260;2024-03-22T02:54:23;14.93;;;8.60;;
15356;SDS011;7778;48.792;9.260;2024-03-22T02:57:09;13.52;;;8.02;;
15356;SDS011;7778;48.792;9.260;2024-03-22T02:59:54;20.55;;;8.88;;
15356;SDS011;7778;48.792;9.260;2024-03-22T03:02:39;14.57;;;8.10;;
15356;SDS011;7778;48.792;9.260;2024-03-22T03:05:25;16.13;;;8.93;;
15356;SDS011;7778;48.792;9.260;2024-03-22T03:08:10;13.98;;;8.45;;
15356;SDS011;7778;48.792;9.260;2024-03-22T03:10:55;13.43;;;8.27;;
15356;SDS011;7778;48.792;9.260;2024-03-22T03:13:41;12.63;;;8.07;;
15356;SDS011;7778;48.792;9.260;2024-03-22T03:16:27;13.77;;;8.63;;
15356;SDS011;7778;48.792;9.260;2024-03-22T03:19:11;13.15;;;8.70;;
15356;SDS011;7778;48.792;9.260;2024-03-22T03:21:57;12.40;;;7.53;;
15356;SDS011;7778;48.792;9.260;2024-03-22T03:24:41;17.15;;;9.02;;
15356;SDS011;7778;48.792;9.260;2024-03-22T03:27:28;14.07;;;8.23;;
15356;SDS011;7778;48.792;9.260;2024-03-22T03:30:14;15.02;;;8.85;;
15356;SDS011;7778;48.792;9.260;2024-03-22T03:32:59;14.35;;;8.50;;
15356;SDS011;7778;48.792;9.260;2024-03-22T03:35:45;17.00;;;8.40;;
15356;SDS011;7778;48.792;9.260;2024-03-22T03:38:30;15.57;;;8.55;;
15356;SDS011;7778;48.792;9.260;2024-03-22T03:41:15;14.02;;;8.45;;
15356;SDS011;7778;48.792;9.260;2024-03-22T03:44:00;12.30;;;8.30;;
15356;SDS011;7778;48.792;9.260;2024-03-22T03:46:47;13.50;;;7.65;;
15356;SDS011;7778;48.792;9.260;2024-03-22T03:49:31;11.93;;;7.55;;
15356;SDS011;7778;48.792;9.260;2024-03-22T03:52:17;12.05;;;7.70;;
15356;SDS011;7778;48.792;9.260;2024-03-22T03:55:02;14.30;;;7.93;;
15356;SDS011;7778;48.792;9.260;2024-03-22T03:57:49;12.70;;;7.95;;
15356;SDS011;7778;48.792;9.260;2024-03-22T04:00:34;11.30;;;7.25;;
15356;SDS011;7778;48.792;9.260;2024-03-22T04:03:22;11.93;;;7.97;;
15356;SDS011;7778;48.792;9.260;2024-03-22T04:06:07;15.00;;;8.70;;
15356;SDS011;7778;48.792;9.260;2024-03-22T04:08:53;12.25;;;7.25;;
15356;SDS011;7778;48.792;9.260;2024-03-22T04:11:38;12.75;;;7.95;;
15356;SDS011;7778;48.792;9.260;2024-03-22T04:14:23;13.68;;;7.75;;
15356;SDS011;7778;48.792;9.260;2024-03-22T04:17:08;17.42;;;7.22;;
15356;SDS011;7778;48.792;9.260;2024-03-22T04:19:55;13.10;;;7.85;;
15356;SDS011;7778;48.792;9.260;2024-03-22T04:22:40;11.45;;;6.53;;
15356;SDS011;7778;48.792;9.260;2024-03-22T04:25:25;17.40;;;7.60;;
15356;SDS011;7778;48.792;9.260;2024-03-22T04:28:10;11.13;;;7.07;;
15356;SDS011;7778;48.792;9.260;2024-03-22T04:30:57;12.55;;;7.38;;
15356;SDS011;7778;48.792;9.260;2024-03-22T04:33:44;12.93;;;7.72;;
15356;SDS011;7778;48.792;9.260;2024-03-22T04:36:31;13.35;;;7.53;;
15356;SDS011;7778;48.792;9.260;2024-03-22T04:39:16;10.52;;;6.63;;
15356;SDS011;7778;48.792;9.260;2024-03-22T04:42:01;16.08;;;6.13;;
15356;SDS011;7778;48.792;9.260;2024-03-22T04:44:47;11.43;;;6.80;;
15356;SDS011;7778;48.792;9.260;2024-03-22T04:47:33;10.80;;;6.55;;
15356;SDS011;7778;48.792;9.260;2024-03-22T04:50:18;10.82;;;5.55;;
15356;SDS011;7778;48.792;9.260;2024-03-22T04:53:04;10.13;;;6.22;;
15356;SDS011;7778;48.792;9.260;2024-03-22T04:55:51;11.75;;;6.13;;
15356;SDS011;7778;48.792;9.260;2024-03-22T04:58:36;11.95;;;6.07;;
15356;SDS011;7778;48.792;9.260;2024-03-22T05:01:21;12.25;;;6.50;;
15356;SDS011;7778;48.792;9.260;2024-03-22T05:04:07;10.43;;;6.50;;
15356;SDS011;7778;48.792;9.260;2024-03-22T05:06:52;11.30;;;6.95;;
15356;SDS011;7778;48.792;9.260;2024-03-22T05:09:38;16.95;;;6.93;;
15356;SDS011;7778;48.792;9.260;2024-03-22T05:12:24;10.57;;;6.30;;
15356;SDS011;7778;48.792;9.260;2024-03-22T05:15:08;9.35;;;5.65;;
15356;SDS011;7778;48.792;9.260;2024-03-22T05:17:56;12.02;;;6.43;;
15356;SDS011;7778;48.792;9.260;2024-03-22T05:20:42;10.70;;;6.68;;
15356;SDS011;7778;48.792;9.260;2024-03-22T05:23:27;9.90;;;5.97;;
15356;SDS011;7778;48.792;9.260;2024-03-22T05:26:13;11.73;;;6.25;;
15356;SDS011;7778;48.792;9.260;2024-03-22T05:28:59;10.35;;;5.93;;
15356;SDS011;7778;48.792;9.260;2024-03-22T05:31:47;10.55;;;6.25;;
15356;SDS011;7778;48.792;9.260;2024-03-22T05:34:35;12.95;;;6.22;;
15356;SDS011;7778;48.792;9.260;2024-03-22T05:37:20;10.45;;;6.30;;
15356;SDS011;7778;48.792;9.260;2024-03-22T05:40:06;10.95;;;5.75;;
15356;SDS011;7778;48.792;9.260;2024-03-22T05:42:55;10.18;;;6.32;;
15356;SDS011;7778;48.792;9.260;2024-03-22T05:45:40;11.20;;;7.35;;
15356;SDS011;7778;48.792;9.260;2024-03-22T05:48:25;10.35;;;6.22;;
15356;SDS011;7778;48.792;9.260;2024-03-22T05:51:10;11.55;;;5.68;;
15356;SDS011;7778;48.792;9.260;2024-03-22T05:53:55;11.82;;;6.40;;
15356;SDS011;7778;48.792;9.260;2024-03-22T05:56:41;11.80;;;6.13;;
15356;SDS011;7778;48.792;9.260;2024-03-22T05:59:28;12.00;;;6.53;;
15356;SDS011;7778;48.792;9.260;2024-03-22T06:02:13;10.68;;;6.90;;
15356;SDS011;7778;48.792;9.260;2024-03-22T06:04:59;10.50;;;6.10;;
15356;SDS011;7778;48.792;9.260;2024-03-22T06:07:44;13.27;;;6.35;;
15356;SDS011;7778;48.792;9.260;2024-03-22T06:10:29;12.45;;;7.45;;
15356;SDS011;7778;48.792;9.260;2024-03-22T06:13:14;15.73;;;6.70;;
15356;SDS011;7778;48.792;9.260;2024-03-22T06:16:01;11.82;;;6.90;;
15356;SDS011;7778;48.792;9.260;2024-03-22T06:18:46;14.15;;;5.85;;
15356;SDS011;7778;48.792;9.260;2024-03-22T06:21:32;14.70;;;6.90;;
15356;SDS011;7778;48.792;9.260;2024-03-22T06:24:16;12.82;;;6.47;;
15356;SDS011;7778;48.792;9.260;2024-03-22T06:27:02;10.30;;;5.93;;
15356;SDS011;7778;48.792;9.260;2024-03-22T06:29:48;11.80;;;7.13;;
15356;SDS011;7778;48.792;9.260;2024-03-22T06:32:35;10.77;;;6.68;;
15356;SDS011;7778;48.792;9.260;2024-03-22T06:35:20;12.40;;;7.03;;
15356;SDS011;7778;48.792;9.260;2024-03-22T06:38:05;11.07;;;6.82;;
15356;SDS011;7778;48.792;9.260;2024-03-22T06:40:51;10.25;;;6.28;;
15356;SDS011;7778;48.792;9.260;2024-03-22T06:43:36;11.05;;;7.15;;
15356;SDS011;7778;48.792;9.260;2024-03-22T06:46:22;12.45;;;7.97;;
15356;SDS011;7778;48.792;9.260;2024-03-22T06:49:08;9.48;;;6.18;;
15356;SDS011;7778;48.792;9.260;2024-03-22T06:51:54;10.82;;;6.90;;
15356;SDS011;7778;48.792;9.260;2024-03-22T06:54:38;14.07;;;7.60;;
15356;SDS011;7778;48.792;9.260;2024-03-22T06:57:24;12.98;;;7.90;;
15356;SDS011;7778;48.792;9.260;2024-03-22T07:00:09;12.25;;;6.97;;
15356;SDS011;7778;48.792;9.260;2024-03-22T07:02:56;12.27;;;6.60;;
15356;SDS011;7778;48.792;9.260;2024-03-22T07:05:45;10.48;;;6.70;;
15356;SDS011;7778;48.792;9.260;2024-03-22T07:08:32;9.07;;;5.53;;
15356;SDS011;7778;48.792;9.260;2024-03-22T07:11:17;11.25;;;6.35;;
15356;SDS011;7778;48.792;9.260;2024-03-22T07:14:02;9.25;;;5.75;;
15356;SDS011;7778;48.792;9.260;2024-03-22T07:16:48;11.55;;;6.13;;
15356;SDS011;7778;48.792;9.260;2024-03-22T07:19:33;8.88;;;5.50;;
15356;SDS011;7778;48.792;9.260;2024-03-22T07:22:20;9.25;;;5.60;;
15356;SDS011;7778;48.792;9.260;2024-03-22T07:25:06;11.60;;;5.78;;
15356;SDS011;7778;48.792;9.260;2024-03-22T07:27:53;11.65;;;6.15;;
15356;SDS011;7778;48.792;9.260;2024-03-22T07:30:37;12.55;;;6.10;;
15356;SDS011;7778;48.792;9.260;2024-03-22T07:33:23;10.52;;;6.68;;
15356;SDS011;7778;48.792;9.260;2024-03-22T07:36:07;11.77;;;6.38;;
15356;SDS011;7778;48.792;9.260;2024-03-22T07:38:54;10.00;;;6.35;;
15356;SDS011;7778;48.792;9.260;2024-03-22T07:41:40;9.80;;;5.88;;
15356;SDS011;7778;48.792;9.260;2024-03-22T07:44:25;8.77;;;5.80;;
15356;SDS011;7778;48.792;9.260;2024-03-22T07:47:12;10.32;;;6.60;;
15356;SDS011;7778;48.792;9.260;2024-03-22T07:49:57;9.65;;;6.00;;
15356;SDS011;7778;48.792;9.260;2024-03-22T07:52:42;12.40;;;7.20;;
15356;SDS011;7778;48.792;9.260;2024-03-22T07:55:29;11.45;;;5.72;;
15356;SDS011;7778;48.792;9.260;2024-03-22T07:58:14;9.88;;;6.40;;
15356;SDS011;7778;48.792;9.260;2024-03-22T08:00:59;7.90;;;4.95;;
15356;SDS011;7778;48.792;9.260;2024-03-22T08:03:44;8.50;;;5.57;;
15356;SDS011;7778;48.792;9.260;2024-03-22T08:06:29;8.70;;;5.35;;
15356;SDS011;7778;48.792;9.260;2024-03-22T08:09:14;9.35;;;5.50;;
15356;SDS011;7778;48.792;9.260;2024-03-22T08:12:03;10.90;;;6.20;;
15356;SDS011;7778;48.792;9.260;2024-03-22T08:14:49;7.18;;;4.72;;
15356;SDS011;7778;48.792;9.260;2024-03-22T08:17:34;10.45;;;5.75;;
15356;SDS011;7778;48.792;9.260;2024-03-22T08:20:19;10.10;;;5.70;;
15356;SDS011;7778;48.792;9.260;2024-03-22T08:23:04;9.30;;;5.80;;
15356;SDS011;7778;48.792;9.260;2024-03-22T08:25:49;8.98;;;5.30;;
15356;SDS011;7778;48.792;9.260;2024-03-22T08:28:36;8.25;;;5.60;;
15356;SDS011;7778;48.792;9.260;2024-03-22T08:31:21;11.15;;;5.78;;
15356;SDS011;7778;48.792;9.260;2024-03-22T08:34:09;11.65;;;5.45;;
15356;SDS011;7778;48.792;9.260;2024-03-22T08:36:54;10.88;;;6.22;;
15356;SDS011;7778;48.792;9.260;2024-03-22T08:39:39;12.98;;;6.22;;
15356;SDS011;7778;48.792;9.260;2024-03-22T08:42:24;9.43;;;5.63;;
15356;SDS011;7778;48.792;9.260;2024-03-22T08:45:11;10.38;;;5.60;;
15356;SDS011;7778;48.792;9.260;2024-03-22T08:47:56;8.70;;;5.97;;
15356;SDS011;7778;48.792;9.260;2024-03-22T08:50:42;10.32;;;5.75;;
15356;SDS011;7778;48.792;9.260;2024-03-22T08:53:26;11.30;;;6.05;;
15356;SDS011;7778;48.792;9.260;2024-03-22T08:56:12;10.02;;;5.85;;
15356;SDS011;7778;48.792;9.260;2024-03-22T08:58:57;9.00;;;5.43;;
15356;SDS011;7778;48.792;9.260;2024-03-22T09:01:44;9.90;;;6.28;;
15356;SDS011;7778;48.792;9.260;2024-03-22T09:04:28;11.02;;;5.60;;
15356;SDS011;7778;48.792;9.260;2024-03-22T09:07:14;11.77;;;5.32;;
15356;SDS011;7778;48.792;9.260;2024-03-22T09:09:59;10.82;;;5.47;;
15356;SDS011;7778;48.792;9.260;2024-03-22T09:12:44;14.00;;;6.40;;
15356;SDS011;7778;48.792;9.260;2024-03-22T09:15:29;10.38;;;5.32;;
15356;SDS011;7778;48.792;9.260;2024-03-22T09:18:15;8.27;;;4.72;;
15356;SDS011;7778;48.792;9.260;2024-03-22T09:21:00;8.95;;;4.97;;
15356;SDS011;7778;48.792;9.260;2024-03-22T09:23:46;7.72;;;4.88;;
15356;SDS011;7778;48.792;9.260;2024-03-22T09:26:31;7.57;;;5.25;;
15356;SDS011;7778;48.792;9.260;2024-03-22T09:29:17;10.02;;;5.75;;
15356;SDS011;7778;48.792;9.260;2024-03-22T09:32:02;8.98;;;5.53;;
15356;SDS011;7778;48.792;9.260;2024-03-22T09:34:50;8.15;;;5.05;;
15356;SDS011;7778;48.792;9.260;2024-03-22T09:37:35;7.03;;;4.65;;
15356;SDS011;7778;48.792;9.260;2024-03-22T09:40:21;9.60;;;5.05;;
15356;SDS011;7778;48.792;9.260;2024-03-22T09:43:05;11.40;;;6.18;;
15356;SDS011;7778;48.792;9.260;2024-03-22T09:45:52;10.75;;;5.80;;
15356;SDS011;7778;48.792;9.260;2024-03-22T09:48:39;9.57;;;5.80;;
15356;SDS011;7778;48.792;9.260;2024-03-22T09:51:28;8.43;;;4.75;;
15356;SDS011;7778;48.792;9.260;2024-03-22T09:54:13;7.22;;;4.90;;
15356;SDS011;7778;48.792;9.260;2024-03-22T09:56:58;9.63;;;5.15;;
15356;SDS011;7778;48.792;9.260;2024-03-22T09:59:44;7.68;;;4.65;;
15356;SDS011;7778;48.792;9.260;2024-03-22T10:02:30;9.60;;;4.93;;
15356;SDS011;7778;48.792;9.260;2024-03-22T10:05:15;7.43;;;4.20;;
15356;SDS011;7778;48.792;9.260;2024-03-22T10:08:04;7.25;;;4.07;;
15356;SDS011;7778;48.792;9.260;2024-03-22T10:10:49;6.25;;;3.80;;
15356;SDS011;7778;48.792;9.260;2024-03-22T10:13:35;6.40;;;3.85;;
15356;SDS011;7778;48.792;9.260;2024-03-22T10:16:20;4.53;;;2.95;;
15356;SDS011;7778;48.792;9.260;2024-03-22T10:19:05;5.07;;;3.10;;
15356;SDS011;7778;48.792;9.260;2024-03-22T10:21:59;4.78;;;2.88;;
15356;SDS011;7778;48.792;9.260;2024-03-22T10:24:46;7.55;;;3.15;;
15356;SDS011;7778;48.792;9.260;2024-03-22T10:27:31;7.20;;;3.05;;
15356;SDS011;7778;48.792;9.260;2024-03-22T10:30:16;4.90;;;3.67;;
15356;SDS011;7778;48.792;9.260;2024-03-22T10:33:01;6.82;;;4.25;;
15356;SDS011;7778;48.792;9.260;2024-03-22T10:35:50;5.30;;;3.30;;
15356;SDS011;7778;48.792;9.260;2024-03-22T10:38:36;6.05;;;3.38;;
15356;SDS011;7778;48.792;9.260;2024-03-22T10:41:25;7.13;;;4.22;;
15356;SDS011;7778;48.792;9.260;2024-03-22T10:44:10;9.18;;;3.95;;
15356;SDS011;7778;48.792;9.260;2024-03-22T10:46:56;5.00;;;3.55;;
15356;SDS011;7778;48.792;9.260;2024-03-22T10:49:45;4.47;;;3.08;;
15356;SDS011;7778;48.792;9.260;2024-03-22T10:52:34;5.18;;;3.05;;
15356;SDS011;7778;48.792;9.260;2024-03-22T10:55:24;4.85;;;2.78;;
15356;SDS011;7778;48.792;9.260;2024-03-22T10:58:16;5.47;;;2.72;;
15356;SDS011;7778;48.792;9.260;2024-03-22T11:01:02;5.47;;;3.10;;
15356;SDS011;7778;48.792;9.260;2024-03-22T11:03:49;10.50;;;3.95;;
15356;SDS011;7778;48.792;9.260;2024-03-22T11:06:33;4.53;;;3.42;;
15356;SDS011;7778;48.792;9.260;2024-03-22T11:09:21;5.10;;;3.05;;
15356;SDS011;7778;48.792;9.260;2024-03-22T11:12:06;5.32;;;3.83;;
15356;SDS011;7778;48.792;9.260;2024-03-22T11:14:55;4.88;;;2.90;;
15356;SDS011;7778;48.792;9.260;2024-03-22T11:17:39;5.47;;;3.10;;
15356;SDS011;7778;48.792;9.260;2024-03-22T11:20:28;5.03;;;2.63;;
15356;SDS011;7778;48.792;9.260;2024-03-22T11:23:13;5.78;;;2.67;;
15356;SDS011;7778;48.792;9.260;2024-03-22T11:25:59;6.47;;;3.33;;
15356;SDS011;7778;48.792;9.260;2024-03-22T11:28:43;5.18;;;3.15;;
15356;SDS011;7778;48.792;9.260;2024-03-22T11:31:30;6.82;;;2.83;;
15356;SDS011;7778;48.792;9.260;2024-03-22T11:34:15;3.65;;;2.53;;
15356;SDS011;7778;48.792;9.260;2024-03-22T11:37:01;4.80;;;3.08;;
15356;SDS011;7778;48.792;9.260;2024-03-22T11:39:45;4.70;;;3.50;;
15356;SDS011;7778;48.792;9.260;2024-03-22T11:42:33;6.20;;;3.55;;
15356;SDS011;7778;48.792;9.260;2024-03-22T11:45:19;6.72;;;3.13;;
15356;SDS011;7778;48.792;9.260;2024-03-22T11:48:07;6.00;;;2.90;;
15356;SDS011;7778;48.792;9.260;2024-03-22T11:50:52;8.95;;;4.68;;
15356;SDS011;7778;48.792;9.260;2024-03-22T11:53:48;4.95;;;3.03;;
15356;SDS011;7778;48.792;9.260;2024-03-22T11:56:34;6.00;;;3.70;;
15356;SDS011;7778;48.792;9.260;2024-03-22T11:59:20;5.78;;;3.05;;
15356;SDS011;7778;48.792;9.260;2024-03-22T12:02:05;6.40;;;3.03;;
15356;SDS011;7778;48.792;9.260;2024-03-22T12:04:55;9.75;;;3.45;;
15356;SDS011;7778;48.792;9.260;2024-03-22T12:07:40;5.20;;;2.70;;
15356;SDS011;7778;48.792;9.260;2024-03-22T12:10:26;4.35;;;3.47;;
15356;SDS011;7778;48.792;9.260;2024-03-22T12:13:11;6.18;;;2.95;;
15356;SDS011;7778;48.792;9.260;2024-03-22T12:15:56;6.68;;;2.95;;
15356;SDS011;7778;48.792;9.260;2024-03-22T12:18:41;5.10;;;3.20;;
15356;SDS011;7778;48.792;9.260;2024-03-22T12:21:28;3.67;;;2.75;;
15356;SDS011;7778;48.792;9.260;2024-03-22T12:24:12;4.57;;;3.15;;
15356;SDS011;7778;48.792;9.260;2024-03-22T12:26:58;6.85;;;3.13;;
15356;SDS011;7778;48.792;9.260;2024-03-22T12:29:43;6.45;;;3.20;;
15356;SDS011;7778;48.792;9.260;2024-03-22T12:32:29;4.53;;;2.60;;
15356;SDS011;7778;48.792;9.260;2024-03-22T12:35:15;5.25;;;2.70;;
15356;SDS011;7778;48.792;9.260;2024-03-22T12:38:02;4.70;;;2.58;;
15356;SDS011;7778;48.792;9.260;2024-03-22T12:40:47;5.47;;;3.28;;
15356;SDS011;7778;48.792;9.260;2024-03-22T12:43:33;3.42;;;2.67;;
15356;SDS011;7778;48.792;9.260;2024-03-22T12:46:18;4.20;;;2.78;;
15356;SDS011;7778;48.792;9.260;2024-03-22T12:49:03;5.60;;;3.10;;
15356;SDS011;7778;48.792;9.260;2024-03-22T12:51:48;5.05;;;2.67;;
15356;SDS011;7778;48.792;9.260;2024-03-22T12:54:35;4.53;;;3.10;;
15356;SDS011;7778;48.792;9.260;2024-03-22T12:57:20;5.18;;;2.80;;
15356;SDS011;7778;48.792;9.260;2024-03-22T13:00:06;4.15;;;2.63;;
15356;SDS011;7778;48.792;9.260;2024-03-22T13:02:56;4.97;;;2.63;;
15356;SDS011;7778;48.792;9.260;2024-03-22T13:05:42;4.80;;;2.70;;
15356;SDS011;7778;48.792;9.260;2024-03-22T13:08:26;6.30;;;3.33;;
15356;SDS011;7778;48.792;9.260;2024-03-22T13:11:13;7.63;;;3.28;;
15356;SDS011;7778;48.792;9.260;2024-03-22T13:13:58;7.45;;;2.65;;
15356;SDS011;7778;48.792;9.260;2024-03-22T13:16:45;8.13;;;3.10;;
15356;SDS011;7778;48.792;9.260;2024-03-22T13:19:30;6.68;;;2.30;;
15356;SDS011;7778;48.792;9.260;2024-03-22T13:22:16;3.47;;;2.15;;
15356;SDS011;7778;48.792;9.260;2024-03-22T13:25:02;3.20;;;2.10;;
15356;SDS011;7778;48.792;9.260;2024-03-22T13:27:52;2.28;;;2.08;;
15356;SDS011;7778;48.792;9.260;2024-03-22T13:30:36;5.60;;;2.38;;
15356;SDS011;7778;48.792;9.260;2024-03-22T13:33:22;2.33;;;2.13;;
15356;SDS011;7778;48.792;9.260;2024-03-22T13:36:07;5.13;;;2.28;;
15356;SDS011;7778;48.792;9.260;2024-03-22T13:38:54;3.25;;;2.20;;
15356;SDS011;7778;48.792;9.260;2024-03-22T13:41:38;3.50;;;2.15;;
15356;SDS011;7778;48.792;9.260;2024-03-22T13:44:25;4.55;;;2.03;;
15356;SDS011;7778;48.792;9.260;2024-03-22T13:47:10;4.43;;;2.35;;
15356;SDS011;7778;48.792;9.260;2024-03-22T13:49:56;3.92;;;2.22;;
15356;SDS011;7778;48.792;9.260;2024-03-22T13:52:40;3.53;;;2.88;;
15356;SDS011;7778;48.792;9.260;2024-03-22T13:55:26;3.40;;;1.95;;
15356;SDS011;7778;48.792;9.260;2024-03-22T13:58:11;3.92;;;2.20;;
15356;SDS011;7778;48.792;9.260;2024-03-22T14:00:59;2.35;;;2.10;;
15356;SDS011;7778;48.792;9.260;2024-03-22T14:03:44;7.78;;;3.47;;
15356;SDS011;7778;48.792;9.260;2024-03-22T14:06:31;3.35;;;2.33;;
15356;SDS011;7778;48.792;9.260;2024-03-22T14:09:16;6.18;;;2.30;;
15356;SDS011;7778;48.792;9.260;2024-03-22T14:12:01;4.18;;;2.05;;
15356;SDS011;7778;48.792;9.260;2024-03-22T14:14:46;5.00;;;2.70;;
15356;SDS011;7778;48.792;9.260;2024-03-22T14:17:33;4.03;;;2.53;;
15356;SDS011;7778;48.792;9.260;2024-03-22T14:20:18;5.93;;;2.80;;
15356;SDS011;7778;48.792;9.260;2024-03-22T14:23:03;4.85;;;2.97;;
15356;SDS011;7778;48.792;9.260;2024-03-22T14:25:50;3.65;;;2.53;;
15356;SDS011;7778;48.792;9.260;2024-03-22T14:28:36;5.35;;;2.85;;
15356;SDS011;7778;48.792;9.260;2024-03-22T14:31:23;3.22;;;2.35;;
15356;SDS011;7778;48.792;9.260;2024-03-22T14:34:10;3.67;;;2.08;;
15356;SDS011;7778;48.792;9.260;2024-03-22T14:36:55;4.25;;;2.35;;
15356;SDS011;7778;48.792;9.260;2024-03-22T14:39:40;4.60;;;2.58;;
15356;SDS011;7778;48.792;9.260;2024-03-22T14:42:26;5.63;;;2.70;;
15356;SDS011;7778;48.792;9.260;2024-03-22T14:45:12;6.05;;;2.70;;
15356;SDS011;7778;48.792;9.260;2024-03-22T14:48:04;6.93;;;3.25;;
15356;SDS011;7778;48.792;9.260;2024-03-22T14:50:52;3.00;;;2.28;;
15356;SDS011;7778;48.792;9.260;2024-03-22T14:53:37;4.07;;;2.58;;
15356;SDS011;7778;48.792;9.260;2024-03-22T14:56:22;7.47;;;2.25;;
15356;SDS011;7778;48.792;9.260;2024-03-22T14:59:07;3.40;;;1.80;;
15356;SDS011;7778;48.792;9.260;2024-03-22T15:01:52;1.55;;;1.40;;
15356;SDS011;7778;48.792;9.260;2024-03-22T15:04:37;1.67;;;1.33;;
15356;SDS011;7778;48.792;9.260;2024-03-22T15:07:24;3.13;;;1.80;;
15356;SDS011;7778;48.792;9.260;2024-03-22T15:10:09;2.13;;;1.50;;
15356;SDS011;7778;48.792;9.260;2024-03-22T15:12:55;2.25;;;1.52;;
15356;SDS011;7778;48.792;9.260;2024-03-22T15:15:40;3.20;;;1.60;;
15356;SDS011;7778;48.792;9.260;2024-03-22T15:18:29;6.38;;;1.60;;
15356;SDS011;7778;48.792;9.260;2024-03-22T15:21:14;2.17;;;1.20;;
15356;SDS011;7778;48.792;9.260;2024-03-22T15:24:01;2.88;;;1.25;;
15356;SDS011;7778;48.792;9.260;2024-03-22T15:26:46;2.42;;;1.30;;
15356;SDS011;7778;48.792;9.260;2024-03-22T15:29:31;1.60;;;1.50;;
15356;SDS011;7778;48.792;9.260;2024-03-22T15:32:16;3.78;;;1.20;;
15356;SDS011;7778;48.792;9.260;2024-03-22T15:35:04;1.30;;;1.10;;
15356;SDS011;7778;48.792;9.260;2024-03-22T15:37:51;2.97;;;1.17;;
15356;SDS011;7778;48.792;9.260;2024-03-22T15:40:37;2.83;;;1.17;;
15356;SDS011;7778;48.792;9.260;2024-03-22T15:43:22;1.90;;;1.10;;
15356;SDS011;7778;48.792;9.260;2024-03-22T15:46:08;2.83;;;1.35;;
15356;SDS011;7778;48.792;9.260;2024-03-22T15:48:53;2.17;;;1.40;;
15356;SDS011;7778;48.792;9.260;2024-03-22T15:51:38;1.60;;;1.50;;
15356;SDS011;7778;48.792;9.260;2024-03-22T15:54:24;3.30;;;1.60;;
15356;SDS011;7778;48.792;9.260;2024-03-22T15:57:11;2.15;;;1.55;;
15356;SDS011;7778;48.792;9.260;2024-03-22T15:59:56;1.67;;;1.27;;
15356;SDS011;7778;48.792;9.260;2024-03-22T16:02:42;1.60;;;1.50;;
15356;SDS011;7778;48.792;9.260;2024-03-22T16:05:27;2.28;;;1.15;;
15356;SDS011;7778;48.792;9.260;2024-03-22T16:08:15;2.13;;;1.42;;
15356;SDS011;7778;48.792;9.260;2024-03-22T16:11:07;3.25;;;1.60;;
15356;SDS011;7778;48.792;9.260;2024-03-22T16:13:54;2.65;;;1.83;;
15356;SDS011;7778;48.792;9.260;2024-03-22T16:16:39;1.55;;;1.38;;
15356;SDS011;7778;48.792;9.260;2024-03-22T16:19:24;2.15;;;1.55;;
15356;SDS011;7778;48.792;9.260;2024-03-22T16:22:12;2.28;;;1.35;;
15356;SDS011;7778;48.792;9.260;2024-03-22T16:24:57;1.70;;;1.45;;
15356;SDS011;7778;48.792;9.260;2024-03-22T16:27:42;2.28;;;1.50;;
15356;SDS011;7778;48.792;9.260;2024-03-22T16:30:29;1.98;;;1.52;;
15356;SDS011;7778;48.792;9.260;2024-03-22T16:33:15;3.10;;;2.00;;
15356;SDS011;7778;48.792;9.260;2024-03-22T16:36:00;3.70;;;1.75;;
15356;SDS011;7778;48.792;9.260;2024-03-22T16:38:45;6.18;;;1.85;;
15356;SDS011;7778;48.792;9.260;2024-03-22T16:41:31;2.55;;;1.95;;
15356;SDS011;7778;48.792;9.260;2024-03-22T16:44:15;2.63;;;1.65;;